sensor_id;sensor_type;location;lat;lon;timestamp;pressure;altitude;pressure_sealevel;temperature;humidity
68594;BME280;55563;52.416;13.548;2022-07-15T00:01:29;101243.44;;;15.62;62.44
68594;BME280;55563;52.416;13.548;2022-07-15T00:03:29;101243.25;;;15.48;63.05
68594;BME280;55563;52.416;13.548;2022-07-15T00:05:30;101241.38;;;15.54;63.05
68594;BME280;55563;52.416;13.548;2022-07-15T00:07:32;101237.94;;;15.48;63.32
68594;BME280;55563;52.416;13.548;2022-07-15T00:09:33;101243.19;;;15.58;63.60
68594;BME280;55563;52.416;13.548;2022-07-15T00:11:53;101244.75;;;15.59;63.07
68594;BME280;55563;52.416;13.548;2022-07-15T00:13:54;101245.88;;;15.48;63.12
68594;BME280;55563;52.416;13.548;2022-07-15T00:15:55;101243.81;;;15.40;63.08
68594;BME280;55563;52.416;13.548;2022-07-15T00:17:56;101242.94;;;15.50;63.18
68594;BME280;55563;52.416;13.548;2022-07-15T00:20:00;101244.56;;;15.46;63.56
68594;BME280;55563;52.416;13.548;2022-07-15T00:22:01;101243.31;;;15.38;63.48
68594;BME280;55563;52.416;13.548;2022-07-15T00:24:01;101243.56;;;15.37;63.78
68594;BME280;55563;52.416;13.548;2022-07-15T00:26:02;101241.97;;;15.36;63.72
68594;BME280;55563;52.416;13.548;2022-07-15T00:28:05;101248.69;;;15.23;64.43
68594;BME280;55563;52.416;13.548;2022-07-15T00:30:06;101249.97;;;15.31;63.45
68594;BME280;55563;52.416;13.548;2022-07-15T00:32:07;101249.16;;;15.30;63.67
68594;BME280;55563;52.416;13.548;2022-07-15T00:34:07;101248.94;;;15.26;63.90
68594;BME280;55563;52.416;13.548;2022-07-15T00:36:08;101252.94;;;15.24;64.14
68594;BME280;55563;52.416;13.548;2022-07-15T00:38:10;101251.41;;;15.08;64.31
68594;BME280;55563;52.416;13.548;2022-07-15T00:40:11;101244.28;;;15.08;64.17
68594;BME280;55563;52.416;13.548;2022-07-15T00:42:13;101246.88;;;15.13;64.43
68594;BME280;55563;52.416;13.548;2022-07-15T00:44:34;101244.25;;;15.13;64.01
68594;BME280;55563;52.416;13.548;2022-07-15T00:46:36;101245.88;;;15.04;64.89
68594;BME280;55563;52.416;13.548;2022-07-15T00:48:36;101244.28;;;15.03;64.96
68594;BME280;55563;52.416;13.548;2022-07-15T00:50:37;101248.78;;;15.03;65.57
68594;BME280;55563;52.416;13.548;2022-07-15T00:52:40;101242.78;;;14.87;66.12
68594;BME280;55563;52.416;13.548;2022-07-15T00:54:42;101246.47;;;14.91;65.57
68594;BME280;55563;52.416;13.548;2022-07-15T00:56:48;101245.16;;;14.89;65.27
68594;BME280;55563;52.416;13.548;2022-07-15T00:58:51;101242.78;;;14.87;65.60
68594;BME280;55563;52.416;13.548;2022-07-15T01:00:54;101252.03;;;14.90;65.69
68594;BME280;55563;52.416;13.548;2022-07-15T01:02:55;101250.00;;;14.76;65.71
68594;BME280;55563;52.416;13.548;2022-07-15T01:04:58;101248.13;;;14.77;65.67
68594;BME280;55563;52.416;13.548;2022-07-15T01:07:01;101246.56;;;14.71;65.64
68594;BME280;55563;52.416;13.548;2022-07-15T01:09:02;101255.81;;;14.73;65.87
68594;BME280;55563;52.416;13.548;2022-07-15T01:11:04;101249.47;;;14.69;65.79
68594;BME280;55563;52.416;13.548;2022-07-15T01:13:05;101249.22;;;14.71;65.84
68594;BME280;55563;52.416;13.548;2022-07-15T01:15:07;101249.47;;;14.64;66.40
68594;BME280;55563;52.416;13.548;2022-07-15T01:17:09;101250.56;;;14.53;66.73
68594;BME280;55563;52.416;13.548;2022-07-15T01:19:11;101259.03;;;14.55;66.72
68594;BME280;55563;52.416;13.548;2022-07-15T01:21:16;101262.25;;;14.47;67.02
68594;BME280;55563;52.416;13.548;2022-07-15T01:23:18;101259.59;;;14.47;67.46
68594;BME280;55563;52.416;13.548;2022-07-15T01:25:39;101263.03;;;14.48;67.35
68594;BME280;55563;52.416;13.548;2022-07-15T01:27:43;101257.44;;;14.54;67.34
68594;BME280;55563;52.416;13.548;2022-07-15T01:29:50;101272.03;;;14.47;67.25
68594;BME280;55563;52.416;13.548;2022-07-15T01:31:51;101261.47;;;14.42;67.37
68594;BME280;55563;52.416;13.548;2022-07-15T01:33:51;101262.25;;;14.47;67.37
68594;BME280;55563;52.416;13.548;2022-07-15T01:35:55;101266.50;;;14.38;67.86
68594;BME280;55563;52.416;13.548;2022-07-15T01:37:57;101259.59;;;14.32;68.63
68594;BME280;55563;52.416;13.548;2022-07-15T01:39:58;101268.84;;;14.34;68.66
68594;BME280;55563;52.416;13.548;2022-07-15T01:41:59;101263.03;;;14.32;68.68
68594;BME280;55563;52.416;13.548;2022-07-15T01:44:00;101262.00;;;14.28;68.65
68594;BME280;55563;52.416;13.548;2022-07-15T01:46:01;101268.06;;;14.29;68.95
68594;BME280;55563;52.416;13.548;2022-07-15T01:48:07;101263.31;;;14.21;69.17
68594;BME280;55563;52.416;13.548;2022-07-15T01:50:37;101257.50;;;14.29;68.91
68594;BME280;55563;52.416;13.548;2022-07-15T01:52:45;101268.09;;;14.24;69.60
68594;BME280;55563;52.416;13.548;2022-07-15T01:54:45;101265.97;;;14.11;69.54
68594;BME280;55563;52.416;13.548;2022-07-15T01:56:46;101265.97;;;14.11;70.05
68594;BME280;55563;52.416;13.548;2022-07-15T01:58:47;101265.16;;;14.15;69.51
68594;BME280;55563;52.416;13.548;2022-07-15T02:00:48;101267.03;;;14.15;69.67
68594;BME280;55563;52.416;13.548;2022-07-15T02:02:49;101265.44;;;14.09;69.93
68594;BME280;55563;52.416;13.548;2022-07-15T02:04:54;101259.63;;;13.96;70.12
68594;BME280;55563;52.416;13.548;2022-07-15T02:06:55;101259.13;;;14.05;69.86
68594;BME280;55563;52.416;13.548;2022-07-15T02:09:05;101253.28;;;14.03;69.59
68594;BME280;55563;52.416;13.548;2022-07-15T02:11:10;101253.53;;;13.91;70.17
68594;BME280;55563;52.416;13.548;2022-07-15T02:13:12;101253.28;;;13.92;70.12
68594;BME280;55563;52.416;13.548;2022-07-15T02:15:13;101258.56;;;13.97;70.17
68594;BME280;55563;52.416;13.548;2022-07-15T02:17:19;101260.72;;;13.85;69.95
68594;BME280;55563;52.416;13.548;2022-07-15T02:19:22;101263.34;;;13.85;69.87
68594;BME280;55563;52.416;13.548;2022-07-15T02:21:24;101260.16;;;13.88;69.85
68594;BME280;55563;52.416;13.548;2022-07-15T02:23:26;101266.50;;;13.82;70.15
68594;BME280;55563;52.416;13.548;2022-07-15T02:25:29;101260.41;;;13.87;69.53
68594;BME280;55563;52.416;13.548;2022-07-15T02:27:30;101271.25;;;13.65;70.42
68594;BME280;55563;52.416;13.548;2022-07-15T02:29:31;101260.94;;;13.64;70.49
68594;BME280;55563;52.416;13.548;2022-07-15T02:31:32;101264.66;;;13.68;70.62
68594;BME280;55563;52.416;13.548;2022-07-15T02:33:35;101278.94;;;13.67;70.80
68594;BME280;55563;52.416;13.548;2022-07-15T02:35:42;101280.25;;;13.69;70.10
68594;BME280;55563;52.416;13.548;2022-07-15T02:37:45;101281.81;;;13.65;70.63
68594;BME280;55563;52.416;13.548;2022-07-15T02:39:46;101279.72;;;13.57;70.77
68594;BME280;55563;52.416;13.548;2022-07-15T02:41:47;101271.25;;;13.65;70.09
68594;BME280;55563;52.416;13.548;2022-07-15T02:43:48;101274.41;;;13.72;70.30
68594;BME280;55563;52.416;13.548;2022-07-15T02:45:49;101277.31;;;13.56;70.63
68594;BME280;55563;52.416;13.548;2022-07-15T02:47:52;101279.19;;;13.65;70.76
68594;BME280;55563;52.416;13.548;2022-07-15T02:50:00;101281.00;;;13.49;70.83
68594;BME280;55563;52.416;13.548;2022-07-15T02:52:03;101287.63;;;13.57;70.70
68594;BME280;55563;52.416;13.548;2022-07-15T02:54:09;101291.03;;;13.58;70.68
68594;BME280;55563;52.416;13.548;2022-07-15T02:56:12;101291.56;;;13.49;71.35
68594;BME280;55563;52.416;13.548;2022-07-15T02:58:13;101289.19;;;13.48;71.11
68594;BME280;55563;52.416;13.548;2022-07-15T03:00:17;101293.94;;;13.51;71.18
68594;BME280;55563;52.416;13.548;2022-07-15T03:02:20;101289.72;;;13.50;71.23
68594;BME280;55563;52.416;13.548;2022-07-15T03:04:21;101292.09;;;13.46;71.65
68594;BME280;55563;52.416;13.548;2022-07-15T03:06:22;101294.19;;;13.44;71.59
68594;BME280;55563;52.416;13.548;2022-07-15T03:08:23;101300.81;;;13.47;71.69
68594;BME280;55563;52.416;13.548;2022-07-15T03:10:24;101305.00;;;13.43;72.06
68594;BME280;55563;52.416;13.548;2022-07-15T03:12:25;101289.72;;;13.45;71.71
68594;BME280;55563;52.416;13.548;2022-07-15T03:14:29;101299.75;;;13.48;71.73
68594;BME280;55563;52.416;13.548;2022-07-15T03:16:30;101303.97;;;13.44;72.13
68594;BME280;55563;52.416;13.548;2022-07-15T03:18:32;101309.25;;;13.44;72.06
68594;BME280;55563;52.416;13.548;2022-07-15T03:20:33;101310.56;;;13.41;72.20
68594;BME280;55563;52.416;13.548;2022-07-15T03:22:34;101317.47;;;13.47;72.17
68594;BME280;55563;52.416;13.548;2022-07-15T03:24:34;101312.16;;;13.52;72.10
68594;BME280;55563;52.416;13.548;2022-07-15T03:26:35;101310.31;;;13.53;71.75
68594;BME280;55563;52.416;13.548;2022-07-15T03:28:36;101317.72;;;13.51;72.12
68594;BME280;55563;52.416;13.548;2022-07-15T03:30:37;101315.09;;;13.56;72.10
68594;BME280;55563;52.416;13.548;2022-07-15T03:32:38;101316.16;;;13.60;71.84
68594;BME280;55563;52.416;13.548;2022-07-15T03:34:39;101319.06;;;13.64;71.67
68594;BME280;55563;52.416;13.548;2022-07-15T03:36:40;101319.88;;;13.69;71.99
68594;BME280;55563;52.416;13.548;2022-07-15T03:38:41;101318.03;;;13.70;71.88
68594;BME280;55563;52.416;13.548;2022-07-15T03:40:41;101329.91;;;13.57;72.45
68594;BME280;55563;52.416;13.548;2022-07-15T03:42:42;101330.16;;;13.56;72.54
68594;BME280;55563;52.416;13.548;2022-07-15T03:44:42;101326.19;;;13.63;72.20
68594;BME280;55563;52.416;13.548;2022-07-15T03:46:43;101332.84;;;13.81;71.68
68594;BME280;55563;52.416;13.548;2022-07-15T03:48:48;101333.38;;;14.08;70.41
68594;BME280;55563;52.416;13.548;2022-07-15T03:50:49;101333.13;;;13.89;71.70
68594;BME280;55563;52.416;13.548;2022-07-15T03:52:51;101338.91;;;13.86;71.67
68594;BME280;55563;52.416;13.548;2022-07-15T03:54:52;101332.03;;;14.01;71.00
68594;BME280;55563;52.416;13.548;2022-07-15T03:56:52;101330.47;;;14.30;70.21
68594;BME280;55563;52.416;13.548;2022-07-15T03:58:53;101339.91;;;15.61;65.87
68594;BME280;55563;52.416;13.548;2022-07-15T04:00:54;101341.56;;;16.53;62.22
68594;BME280;55563;52.416;13.548;2022-07-15T04:02:55;101335.38;;;17.11;59.86
68594;BME280;55563;52.416;13.548;2022-07-15T04:04:59;101342.34;;;17.49;58.74
68594;BME280;55563;52.416;13.548;2022-07-15T04:06:59;101339.13;;;17.28;59.02
68594;BME280;55563;52.416;13.548;2022-07-15T04:09:00;101335.44;;;18.50;55.62
68594;BME280;55563;52.416;13.548;2022-07-15T04:11:03;101329.78;;;18.84;54.27
68594;BME280;55563;52.416;13.548;2022-07-15T04:13:05;101339.91;;;18.55;55.02
68594;BME280;55563;52.416;13.548;2022-07-15T04:15:06;101333.78;;;18.95;54.05
68594;BME280;55563;52.416;13.548;2022-07-15T04:17:07;101334.91;;;18.94;54.17
68594;BME280;55563;52.416;13.548;2022-07-15T04:19:11;101334.41;;;18.92;53.75
68594;BME280;55563;52.416;13.548;2022-07-15T04:21:12;101332.91;;;19.00;53.82
68594;BME280;55563;52.416;13.548;2022-07-15T04:23:14;101340.72;;;19.59;52.16
68594;BME280;55563;52.416;13.548;2022-07-15T04:25:18;101339.66;;;20.27;50.14
68594;BME280;55563;52.416;13.548;2022-07-15T04:27:19;101338.34;;;18.81;53.40
68594;BME280;55563;52.416;13.548;2022-07-15T04:29:20;101342.34;;;19.20;53.37
68594;BME280;55563;52.416;13.548;2022-07-15T04:31:21;101343.16;;;19.92;51.21
68594;BME280;55563;52.416;13.548;2022-07-15T04:33:28;101344.66;;;18.85;53.88
68594;BME280;55563;52.416;13.548;2022-07-15T04:35:29;101343.66;;;18.81;54.45
68594;BME280;55563;52.416;13.548;2022-07-15T04:37:38;101341.22;;;18.85;54.42
68594;BME280;55563;52.416;13.548;2022-07-15T04:39:38;101347.69;;;18.33;56.02
68594;BME280;55563;52.416;13.548;2022-07-15T04:41:39;101342.78;;;18.86;54.14
68594;BME280;55563;52.416;13.548;2022-07-15T04:43:40;101351.88;;;18.39;55.08
68594;BME280;55563;52.416;13.548;2022-07-15T04:45:40;101344.25;;;19.05;54.50
68594;BME280;55563;52.416;13.548;2022-07-15T04:47:42;101345.34;;;20.65;49.81
68594;BME280;55563;52.416;13.548;2022-07-15T04:49:46;101344.28;;;21.23;48.08
68594;BME280;55563;52.416;13.548;2022-07-15T04:52:08;101353.44;;;21.39;47.73
68594;BME280;55563;52.416;13.548;2022-07-15T04:54:14;101356.44;;;21.89;46.18
68594;BME280;55563;52.416;13.548;2022-07-15T04:56:15;101356.59;;;21.93;46.18
68594;BME280;55563;52.416;13.548;2022-07-15T04:58:16;101353.66;;;21.12;48.37
68594;BME280;55563;52.416;13.548;2022-07-15T05:00:17;101356.28;;;21.60;47.00
68594;BME280;55563;52.416;13.548;2022-07-15T05:02:18;101351.03;;;21.20;47.91
68594;BME280;55563;52.416;13.548;2022-07-15T05:04:22;101363.53;;;21.85;46.40
68594;BME280;55563;52.416;13.548;2022-07-15T05:06:24;101372.50;;;21.89;46.40
68594;BME280;55563;52.416;13.548;2022-07-15T05:08:25;101368.09;;;22.02;46.71
68594;BME280;55563;52.416;13.548;2022-07-15T05:10:29;101372.81;;;22.13;45.27
68594;BME280;55563;52.416;13.548;2022-07-15T05:12:35;101370.56;;;21.29;47.00
68594;BME280;55563;52.416;13.548;2022-07-15T05:14:36;101365.09;;;21.60;47.09
68594;BME280;55563;52.416;13.548;2022-07-15T05:16:39;101372.47;;;20.06;50.91
68594;BME280;55563;52.416;13.548;2022-07-15T05:18:41;101368.91;;;19.25;52.49
68594;BME280;55563;52.416;13.548;2022-07-15T05:20:42;101371.19;;;18.30;55.51
68594;BME280;55563;52.416;13.548;2022-07-15T05:22:42;101368.31;;;18.08;56.38
68594;BME280;55563;52.416;13.548;2022-07-15T05:24:45;101367.47;;;18.13;55.96
68594;BME280;55563;52.416;13.548;2022-07-15T05:26:47;101376.72;;;17.83;56.47
68594;BME280;55563;52.416;13.548;2022-07-15T05:28:49;101374.41;;;17.76;56.96
68594;BME280;55563;52.416;13.548;2022-07-15T05:30:50;101383.44;;;17.94;56.77
68594;BME280;55563;52.416;13.548;2022-07-15T05:32:52;101416.53;;;18.07;56.76
68594;BME280;55563;52.416;13.548;2022-07-15T05:34:56;101415.06;;;20.55;49.51
68594;BME280;55563;52.416;13.548;2022-07-15T05:36:57;101394.75;;;20.76;48.71
68594;BME280;55563;52.416;13.548;2022-07-15T05:38:58;101390.00;;;20.20;49.50
68594;BME280;55563;52.416;13.548;2022-07-15T05:41:00;101384.78;;;18.61;53.48
68594;BME280;55563;52.416;13.548;2022-07-15T05:43:01;101376.41;;;19.86;51.58
68594;BME280;55563;52.416;13.548;2022-07-15T05:45:05;101395.03;;;20.22;50.67
68594;BME280;55563;52.416;13.548;2022-07-15T05:47:06;101394.66;;;19.43;52.30
68594;BME280;55563;52.416;13.548;2022-07-15T05:49:07;101388.34;;;19.66;51.87
68594;BME280;55563;52.416;13.548;2022-07-15T05:51:08;101387.75;;;19.55;51.92
68594;BME280;55563;52.416;13.548;2022-07-15T05:53:08;101393.00;;;19.61;52.69
68594;BME280;55563;52.416;13.548;2022-07-15T05:55:09;101400.13;;;18.97;54.57
68594;BME280;55563;52.416;13.548;2022-07-15T05:57:11;101400.38;;;18.82;54.33
68594;BME280;55563;52.416;13.548;2022-07-15T05:59:12;101405.81;;;18.90;54.48
68594;BME280;55563;52.416;13.548;2022-07-15T06:01:13;101400.25;;;18.08;56.68
68594;BME280;55563;52.416;13.548;2022-07-15T06:03:14;101414.69;;;18.40;55.46
68594;BME280;55563;52.416;13.548;2022-07-15T06:05:17;101410.53;;;18.66;54.67
68594;BME280;55563;52.416;13.548;2022-07-15T06:07:23;101412.38;;;19.88;52.42
68594;BME280;55563;52.416;13.548;2022-07-15T06:09:24;101409.78;;;19.34;52.82
68594;BME280;55563;52.416;13.548;2022-07-15T06:11:28;101414.19;;;20.01;51.52
68594;BME280;55563;52.416;13.548;2022-07-15T06:13:29;101415.97;;;20.06;50.03
68594;BME280;55563;52.416;13.548;2022-07-15T06:15:30;101411.94;;;21.23;48.25
68594;BME280;55563;52.416;13.548;2022-07-15T06:17:32;101418.75;;;21.07;46.94
68594;BME280;55563;52.416;13.548;2022-07-15T06:19:34;101418.81;;;22.07;45.71
68594;BME280;55563;52.416;13.548;2022-07-15T06:21:35;101416.88;;;21.73;44.84
68594;BME280;55563;52.416;13.548;2022-07-15T06:23:35;101431.91;;;22.00;45.33
68594;BME280;55563;52.416;13.548;2022-07-15T06:25:36;101433.75;;;22.16;44.41
68594;BME280;55563;52.416;13.548;2022-07-15T06:27:37;101426.94;;;23.38;41.38
68594;BME280;55563;52.416;13.548;2022-07-15T06:29:38;101417.81;;;22.46;42.38
68594;BME280;55563;52.416;13.548;2022-07-15T06:31:39;101419.41;;;21.61;44.98
68594;BME280;55563;52.416;13.548;2022-07-15T06:33:40;101437.19;;;20.78;46.83
68594;BME280;55563;52.416;13.548;2022-07-15T06:35:41;101427.19;;;20.17;48.63
68594;BME280;55563;52.416;13.548;2022-07-15T06:37:42;101430.66;;;19.81;49.29
68594;BME280;55563;52.416;13.548;2022-07-15T06:39:43;101431.84;;;19.89;50.46
68594;BME280;55563;52.416;13.548;2022-07-15T06:41:43;101430.66;;;19.81;49.44
68594;BME280;55563;52.416;13.548;2022-07-15T06:43:46;101432.22;;;19.46;50.74
68594;BME280;55563;52.416;13.548;2022-07-15T06:46:00;101434.09;;;19.32;51.11
68594;BME280;55563;52.416;13.548;2022-07-15T06:48:00;101433.31;;;18.72;52.00
68594;BME280;55563;52.416;13.548;2022-07-15T06:50:02;101436.72;;;18.91;52.13
68594;BME280;55563;52.416;13.548;2022-07-15T06:52:03;101439.78;;;18.98;52.45
68594;BME280;55563;52.416;13.548;2022-07-15T06:54:04;101443.53;;;18.84;52.76
68594;BME280;55563;52.416;13.548;2022-07-15T06:56:07;101438.59;;;18.91;52.07
68594;BME280;55563;52.416;13.548;2022-07-15T06:58:09;101436.22;;;18.89;53.01
68594;BME280;55563;52.416;13.548;2022-07-15T07:00:11;101439.28;;;18.96;52.34
68594;BME280;55563;52.416;13.548;2022-07-15T07:02:14;101446.75;;;18.81;52.57
68594;BME280;55563;52.416;13.548;2022-07-15T07:04:16;101447.78;;;18.85;51.92
68594;BME280;55563;52.416;13.548;2022-07-15T07:06:17;101445.69;;;18.30;52.44
68594;BME280;55563;52.416;13.548;2022-07-15T07:08:17;101447.63;;;18.44;52.60
68594;BME280;55563;52.416;13.548;2022-07-15T07:10:18;101445.63;;;18.36;52.83
68594;BME280;55563;52.416;13.548;2022-07-15T07:12:18;101442.19;;;18.67;52.82
68594;BME280;55563;52.416;13.548;2022-07-15T07:14:19;101433.75;;;18.79;53.35
68594;BME280;55563;52.416;13.548;2022-07-15T07:16:20;101455.59;;;18.62;52.69
68594;BME280;55563;52.416;13.548;2022-07-15T07:18:20;101451.88;;;18.45;52.81
68594;BME280;55563;52.416;13.548;2022-07-15T07:20:21;101461.91;;;18.48;53.92
68594;BME280;55563;52.416;13.548;2022-07-15T07:22:22;101454.41;;;18.55;54.28
68594;BME280;55563;52.416;13.548;2022-07-15T07:24:23;101447.72;;;18.20;55.48
68594;BME280;55563;52.416;13.548;2022-07-15T07:26:23;101456.16;;;18.27;55.02
68594;BME280;55563;52.416;13.548;2022-07-15T07:28:24;101457.94;;;18.32;55.48
68594;BME280;55563;52.416;13.548;2022-07-15T07:30:25;101454.25;;;18.27;54.36
68594;BME280;55563;52.416;13.548;2022-07-15T07:32:25;101455.38;;;18.08;55.11
68594;BME280;55563;52.416;13.548;2022-07-15T07:34:26;101463.16;;;18.18;54.47
68594;BME280;55563;52.416;13.548;2022-07-15T07:36:27;101456.91;;;18.27;54.45
68594;BME280;55563;52.416;13.548;2022-07-15T07:38:27;101451.88;;;18.45;53.99
68594;BME280;55563;52.416;13.548;2022-07-15T07:40:28;101453.84;;;18.71;52.96
68594;BME280;55563;52.416;13.548;2022-07-15T07:42:29;101451.94;;;18.40;53.94
68594;BME280;55563;52.416;13.548;2022-07-15T07:44:30;101458.25;;;18.44;54.79
68594;BME280;55563;52.416;13.548;2022-07-15T07:46:31;101460.81;;;18.16;55.13
68594;BME280;55563;52.416;13.548;2022-07-15T07:48:32;101458.91;;;17.79;56.13
68594;BME280;55563;52.416;13.548;2022-07-15T07:50:33;101452.91;;;17.74;56.39
68594;BME280;55563;52.416;13.548;2022-07-15T07:52:33;101450.19;;;17.98;56.83
68594;BME280;55563;52.416;13.548;2022-07-15T07:54:34;101453.56;;;18.03;55.79
68594;BME280;55563;52.416;13.548;2022-07-15T07:56:35;101447.84;;;18.80;55.21
68594;BME280;55563;52.416;13.548;2022-07-15T07:58:36;101454.56;;;18.91;54.59
68594;BME280;55563;52.416;13.548;2022-07-15T08:00:39;101448.84;;;18.33;54.32
68594;BME280;55563;52.416;13.548;2022-07-15T08:02:40;101460.44;;;18.23;54.96
68594;BME280;55563;52.416;13.548;2022-07-15T08:04:42;101456.13;;;18.08;55.09
68594;BME280;55563;52.416;13.548;2022-07-15T08:06:43;101456.16;;;18.27;56.73
68594;BME280;55563;52.416;13.548;2022-07-15T08:08:44;101448.91;;;18.46;55.33
68594;BME280;55563;52.416;13.548;2022-07-15T08:10:48;101445.22;;;19.21;53.53
68594;BME280;55563;52.416;13.548;2022-07-15T08:12:49;101444.63;;;19.24;54.04
68594;BME280;55563;52.416;13.548;2022-07-15T08:14:49;101444.72;;;19.05;52.32
68594;BME280;55563;52.416;13.548;2022-07-15T08:16:51;101453.28;;;18.75;51.47
68594;BME280;55563;52.416;13.548;2022-07-15T08:18:52;101456.03;;;18.83;51.34
68594;BME280;55563;52.416;13.548;2022-07-15T08:20:53;101459.72;;;18.55;50.19
68594;BME280;55563;52.416;13.548;2022-07-15T08:22:54;101457.59;;;18.52;51.37
68594;BME280;55563;52.416;13.548;2022-07-15T08:24:58;101457.91;;;18.50;52.36
68594;BME280;55563;52.416;13.548;2022-07-15T08:26:59;101462.56;;;18.07;52.58
68594;BME280;55563;52.416;13.548;2022-07-15T08:29:02;101465.22;;;18.07;52.66
68594;BME280;55563;52.416;13.548;2022-07-15T08:31:02;101462.09;;;18.19;52.31
68594;BME280;55563;52.416;13.548;2022-07-15T08:33:03;101457.56;;;18.01;51.39
68594;BME280;55563;52.416;13.548;2022-07-15T08:35:04;101454.03;;;17.68;51.08
68594;BME280;55563;52.416;13.548;2022-07-15T08:37:05;101458.16;;;17.98;52.23
68594;BME280;55563;52.416;13.548;2022-07-15T08:39:05;101460.50;;;18.18;52.23
68594;BME280;55563;52.416;13.548;2022-07-15T08:41:06;101471.16;;;18.18;52.66
68594;BME280;55563;52.416;13.548;2022-07-15T08:43:08;101468.22;;;18.19;51.83
68594;BME280;55563;52.416;13.548;2022-07-15T08:45:10;101454.56;;;18.26;52.06
68594;BME280;55563;52.416;13.548;2022-07-15T08:47:11;101446.41;;;18.36;50.59
68594;BME280;55563;52.416;13.548;2022-07-15T08:49:14;101456.84;;;18.97;50.09
68594;BME280;55563;52.416;13.548;2022-07-15T08:51:15;101452.59;;;18.83;48.86
68594;BME280;55563;52.416;13.548;2022-07-15T08:53:17;101471.59;;;18.76;49.66
68594;BME280;55563;52.416;13.548;2022-07-15T08:55:18;101454.38;;;18.87;48.89
68594;BME280;55563;52.416;13.548;2022-07-15T08:57:19;101460.84;;;18.67;48.14
68594;BME280;55563;52.416;13.548;2022-07-15T08:59:20;101462.50;;;18.63;49.96
68594;BME280;55563;52.416;13.548;2022-07-15T09:01:21;101462.16;;;18.84;49.49
68594;BME280;55563;52.416;13.548;2022-07-15T09:03:22;101471.22;;;18.83;48.12
68594;BME280;55563;52.416;13.548;2022-07-15T09:05:27;101472.66;;;18.61;48.26
68594;BME280;55563;52.416;13.548;2022-07-15T09:07:28;101467.88;;;18.91;48.96
68594;BME280;55563;52.416;13.548;2022-07-15T09:09:30;101474.69;;;18.83;50.61
68594;BME280;55563;52.416;13.548;2022-07-15T09:11:31;101470.81;;;18.76;49.70
68594;BME280;55563;52.416;13.548;2022-07-15T09:13:34;101476.88;;;18.95;49.96
68594;BME280;55563;52.416;13.548;2022-07-15T09:15:37;101470.38;;;19.01;50.00
68594;BME280;55563;52.416;13.548;2022-07-15T09:17:39;101465.09;;;18.50;50.67
68594;BME280;55563;52.416;13.548;2022-07-15T09:22:14;101472.66;;;18.43;51.02
68594;BME280;55563;52.416;13.548;2022-07-15T09:24:17;101475.22;;;18.66;51.55
68594;BME280;55563;52.416;13.548;2022-07-15T09:26:34;101474.44;;;18.66;52.04
68594;BME280;55563;52.416;13.548;2022-07-15T09:28:39;101481.53;;;18.89;51.07
68594;BME280;55563;52.416;13.548;2022-07-15T09:30:44;101481.06;;;18.68;49.36
68594;BME280;55563;52.416;13.548;2022-07-15T09:33:08;101481.69;;;18.79;49.11
68594;BME280;55563;52.416;13.548;2022-07-15T09:35:30;101478.25;;;18.92;49.23
68594;BME280;55563;52.416;13.548;2022-07-15T09:37:58;101484.03;;;18.81;48.97
68594;BME280;55563;52.416;13.548;2022-07-15T09:39:59;101484.59;;;19.10;50.09
68594;BME280;55563;52.416;13.548;2022-07-15T09:42:05;101487.09;;;18.74;47.63
68594;BME280;55563;52.416;13.548;2022-07-15T09:44:11;101490.56;;;18.75;48.54
68594;BME280;55563;52.416;13.548;2022-07-15T09:46:13;101491.16;;;18.85;47.68
68594;BME280;55563;52.416;13.548;2022-07-15T09:48:14;101487.75;;;18.66;48.50
68594;BME280;55563;52.416;13.548;2022-07-15T09:50:15;101487.16;;;19.01;49.15
68594;BME280;55563;52.416;13.548;2022-07-15T09:52:45;101483.25;;;19.26;49.18
68594;BME280;55563;52.416;13.548;2022-07-15T09:54:48;101493.41;;;19.24;48.73
68594;BME280;55563;52.416;13.548;2022-07-15T09:56:50;101492.81;;;19.27;48.89
68594;BME280;55563;52.416;13.548;2022-07-15T09:58:51;101494.78;;;19.22;49.08
68594;BME280;55563;52.416;13.548;2022-07-15T10:00:51;101493.81;;;18.85;49.46
68594;BME280;55563;52.416;13.548;2022-07-15T10:02:53;101493.16;;;18.93;50.38
68594;BME280;55563;52.416;13.548;2022-07-15T10:04:54;101492.28;;;18.98;49.99
68594;BME280;55563;52.416;13.548;2022-07-15T10:06:58;101489.63;;;19.11;50.95
68594;BME280;55563;52.416;13.548;2022-07-15T10:09:01;101493.38;;;19.10;51.27
68594;BME280;55563;52.416;13.548;2022-07-15T10:11:08;101489.56;;;19.30;49.59
68594;BME280;55563;52.416;13.548;2022-07-15T10:13:34;101488.69;;;19.48;48.55
68594;BME280;55563;52.416;13.548;2022-07-15T10:21:00;101479.00;;;19.80;48.19
68594;BME280;55563;52.416;13.548;2022-07-15T10:23:16;101484.66;;;19.65;47.94
68594;BME280;55563;52.416;13.548;2022-07-15T10:27:52;101486.53;;;19.50;48.31
68594;BME280;55563;52.416;13.548;2022-07-15T10:29:55;101469.91;;;19.26;48.70
68594;BME280;55563;52.416;13.548;2022-07-15T10:31:58;101486.19;;;19.25;48.64
68594;BME280;55563;52.416;13.548;2022-07-15T10:36:15;101483.50;;;18.97;49.29
68594;BME280;55563;52.416;13.548;2022-07-15T10:38:19;101476.66;;;18.91;48.48
68594;BME280;55563;52.416;13.548;2022-07-15T10:40:20;101499.50;;;18.97;49.90
68594;BME280;55563;52.416;13.548;2022-07-15T10:42:20;101498.72;;;19.10;48.90
68594;BME280;55563;52.416;13.548;2022-07-15T10:44:22;101493.41;;;19.38;48.86
68594;BME280;55563;52.416;13.548;2022-07-15T10:46:26;101491.44;;;19.43;49.11